Terminal Aerodrome Forecast
Issued by NWS Raleigh/Durham, NC

Home | Current Version | Previous Version | Text Only | Print | Product List | Glossary On
Versions: 1 2 3 4 5 6 7 8 9 10 11 12 13 14 15 16 17 18 19 20 21 22 23 24
000
FTUS42 KRAH 060052 AAA
TAFFAY
TAF AMD
KFAY 060052Z 0601/0624 30008KT 5SM -RA BR OVC015
      TEMPO 0609/0612 4SM -RA OVC007
     FM061500 33007KT P6SM OVC050
     FM061800 30008KT P6SM BKN100 PROB30 0618/0624 P6SM TS BKN050CB=

USA.gov is the U.S. government's official web portal to all federal, state and local government web resources and services.